createdAt,value
2017-08-27T00:01:45.025Z,96996.33
2017-08-27T00:04:12.626Z,96994.94
2017-08-27T00:06:40.229Z,96998.53
2017-08-27T00:09:07.863Z,96996.01
2017-08-27T00:11:35.465Z,97004.28
2017-08-27T00:14:03.069Z,97001.95
2017-08-27T00:16:30.662Z,96999.82
2017-08-27T00:18:59.319Z,97003.63
2017-08-27T00:21:26.900Z,97006.58
2017-08-27T00:23:54.500Z,97014.31
2017-08-27T00:26:22.136Z,97016.18
2017-08-27T00:28:49.814Z,97004.79
2017-08-27T00:31:17.434Z,97010.09
2017-08-27T00:33:45.023Z,97019.56
2017-08-27T00:36:12.971Z,97009.67
2017-08-27T00:38:40.579Z,97010.58
2017-08-27T00:41:08.171Z,97007.15
2017-08-27T00:43:36.078Z,97005.91
2017-08-27T00:46:03.706Z,97005.47
2017-08-27T00:48:31.315Z,97004.52
2017-08-27T00:50:58.930Z,97000.17
2017-08-27T00:53:26.931Z,96995.39
2017-08-27T00:55:54.537Z,96997.11
2017-08-27T00:58:22.149Z,96994.48
2017-08-27T01:00:50.224Z,96995.67
2017-08-27T01:03:17.823Z,96993.95
2017-08-27T01:05:45.436Z,96995.73
2017-08-27T01:08:13.030Z,97000.50
2017-08-27T01:10:40.950Z,97004.57
2017-08-27T01:13:08.592Z,97007.58
2017-08-27T01:15:36.181Z,97004.09
2017-08-27T01:18:03.811Z,96999.78
2017-08-27T01:20:31.421Z,96995.92
2017-08-27T01:22:59.024Z,96998.08
2017-08-27T01:25:26.610Z,96987.38
2017-08-27T01:27:54.259Z,96983.58
2017-08-27T01:30:22.063Z,96991.93
2017-08-27T01:32:49.715Z,97003.59
2017-08-27T01:35:17.324Z,97004.55
2017-08-27T01:37:45.225Z,96997.44
2017-08-27T01:40:12.822Z,96993.67
2017-08-27T01:42:40.551Z,96992.05
2017-08-27T01:45:08.275Z,96988.67
2017-08-27T01:47:35.868Z,96992.55
2017-08-27T01:50:03.484Z,97000.32
2017-08-27T01:52:31.095Z,97001.14
2017-08-27T01:54:59.095Z,97004.62
2017-08-27T01:57:26.851Z,96995.70
2017-08-27T01:59:54.460Z,96993.70
2017-08-27T02:02:22.083Z,96992.27
2017-08-27T02:04:49.705Z,96991.97
2017-08-27T02:07:17.327Z,96993.45
2017-08-27T02:09:44.945Z,96996.16
2017-08-27T02:12:12.943Z,96994.20
2017-08-27T02:14:40.620Z,96987.77
2017-08-27T02:17:08.214Z,96986.00
2017-08-27T02:19:35.806Z,96990.68
2017-08-27T02:22:03.403Z,96990.72
2017-08-27T02:24:31.099Z,96991.96
2017-08-27T02:26:58.714Z,96990.77
2017-08-27T02:29:26.814Z,96993.42
2017-08-27T02:31:54.397Z,96993.44
2017-08-27T02:34:21.979Z,96994.38
2017-08-27T02:36:49.667Z,96991.85
2017-08-27T02:39:17.402Z,97000.05
2017-08-27T02:41:45.006Z,97000.13
2017-08-27T02:44:12.605Z,97000.17
2017-08-27T02:46:40.529Z,96999.36
2017-08-27T02:49:08.110Z,96993.02
2017-08-27T02:51:35.838Z,96989.63
2017-08-27T02:54:03.494Z,96988.73
2017-08-27T02:56:31.133Z,96990.48
2017-08-27T02:58:58.791Z,96986.23
2017-08-27T03:01:26.389Z,96990.06
2017-08-27T03:03:54.134Z,96991.30
2017-08-27T03:06:21.725Z,96990.40
2017-08-27T03:08:49.810Z,96989.11
2017-08-27T03:11:17.622Z,96984.40
2017-08-27T03:13:45.236Z,96981.87
2017-08-27T03:16:12.882Z,96978.95
2017-08-27T03:18:40.445Z,96985.42
2017-08-27T03:21:08.051Z,96991.90
2017-08-27T03:23:35.794Z,96989.33
2017-08-27T03:26:03.787Z,96990.62
2017-08-27T03:28:31.382Z,96993.66
2017-08-27T03:30:58.965Z,96987.27
2017-08-27T03:33:26.606Z,96993.31
2017-08-27T03:35:54.199Z,97003.69
2017-08-27T03:38:21.792Z,96995.98
2017-08-27T03:40:49.414Z,96998.30
2017-08-27T03:43:17.177Z,96997.09
2017-08-27T03:45:44.755Z,96997.56
2017-08-27T03:48:12.645Z,97008.95
2017-08-27T03:50:40.270Z,97007.88
2017-08-27T03:53:07.897Z,97008.88
2017-08-27T03:55:35.514Z,97007.25
2017-08-27T03:58:03.171Z,97016.29
2017-08-27T04:00:30.783Z,97015.94
2017-08-27T04:02:58.377Z,97016.13
2017-08-27T04:05:26.407Z,97020.17
2017-08-27T04:07:54.012Z,97025.81
2017-08-27T04:10:21.698Z,97029.70
2017-08-27T04:12:49.299Z,97040.80
2017-08-27T04:15:16.897Z,97044.33
2017-08-27T04:17:44.528Z,97047.40
2017-08-27T04:20:12.114Z,97042.80
2017-08-27T04:22:39.721Z,97040.22
2017-08-27T04:25:07.317Z,97043.61
2017-08-27T04:27:34.950Z,97051.39
2017-08-27T04:30:02.560Z,97051.36
2017-08-27T04:32:30.145Z,97044.55
2017-08-27T04:34:57.762Z,97041.55
2017-08-27T04:37:25.367Z,97045.72
2017-08-27T04:39:52.992Z,97053.39
2017-08-27T04:42:20.584Z,97052.92
2017-08-27T04:44:48.333Z,97051.25
2017-08-27T04:47:15.936Z,97054.32
2017-08-27T04:49:43.840Z,97052.22
2017-08-27T04:52:11.451Z,97054.78
2017-08-27T04:54:39.071Z,97052.14
2017-08-27T04:57:06.715Z,97054.64
2017-08-27T04:59:34.339Z,97049.94
2017-08-27T05:02:02.159Z,97050.75
2017-08-27T05:04:29.736Z,97046.05
2017-08-27T05:06:57.678Z,97052.00
2017-08-27T05:09:25.270Z,97046.36
2017-08-27T05:11:53.029Z,97036.37
2017-08-27T05:14:20.639Z,97046.28
2017-08-27T05:16:48.229Z,97049.78
2017-08-27T05:19:16.315Z,97051.19
2017-08-27T05:21:43.894Z,97052.27
2017-08-27T05:24:11.976Z,97058.81
2017-08-27T05:26:39.566Z,97058.45
2017-08-27T05:29:07.160Z,97057.17
2017-08-27T05:31:34.768Z,97065.31
2017-08-27T05:34:02.372Z,97066.13
2017-08-27T05:36:29.989Z,97062.67
2017-08-27T05:38:57.579Z,97053.59
2017-08-27T05:41:25.483Z,97062.91
2017-08-27T05:43:53.093Z,97062.02
2017-08-27T05:46:20.875Z,97056.88
2017-08-27T05:48:48.510Z,97057.30
2017-08-27T05:51:16.136Z,97066.27
2017-08-27T05:53:44.089Z,97071.64
2017-08-27T05:56:11.685Z,97068.14
2017-08-27T05:58:39.328Z,97075.70
2017-08-27T06:01:06.937Z,97076.78
2017-08-27T06:03:34.558Z,97072.34
2017-08-27T06:06:02.182Z,97078.18
2017-08-27T06:08:29.791Z,97075.02
2017-08-27T06:10:57.404Z,97078.40
2017-08-27T06:13:25.034Z,97082.65
2017-08-27T06:15:53.066Z,97071.38
2017-08-27T06:18:20.672Z,97077.69
2017-08-27T06:20:48.265Z,97075.45
2017-08-27T06:23:15.882Z,97078.24
2017-08-27T06:25:43.520Z,97080.25
2017-08-27T06:28:11.175Z,97081.07
2017-08-27T06:30:38.766Z,97083.42
2017-08-27T06:33:06.395Z,97079.43
2017-08-27T06:35:34.032Z,97083.20
2017-08-27T06:38:02.005Z,97084.40
2017-08-27T06:40:29.591Z,97093.23
2017-08-27T06:42:57.231Z,97091.38
2017-08-27T06:45:24.850Z,97087.00
2017-08-27T06:47:53.528Z,97088.14
2017-08-27T06:50:21.158Z,97090.47
2017-08-27T06:52:48.753Z,97087.28
2017-08-27T06:55:17.166Z,97080.13
2017-08-27T06:57:44.757Z,97083.41
2017-08-27T07:00:12.346Z,97074.63
2017-08-27T07:02:39.992Z,97080.10
2017-08-27T07:05:07.601Z,97085.55
2017-08-27T07:07:35.240Z,97099.56
2017-08-27T07:10:02.867Z,97105.77
2017-08-27T07:12:30.467Z,97107.18
2017-08-27T07:14:58.073Z,97104.80
2017-08-27T07:17:25.705Z,97098.58
2017-08-27T07:19:53.298Z,97090.95
2017-08-27T07:22:20.950Z,97100.09
2017-08-27T07:24:48.580Z,97089.50
2017-08-27T07:27:16.557Z,97092.67
2017-08-27T07:29:44.178Z,97103.67
2017-08-27T07:32:11.791Z,97094.97
2017-08-27T07:34:39.428Z,97102.42
2017-08-27T07:37:07.244Z,97105.64
2017-08-27T07:39:35.250Z,97098.51
2017-08-27T07:42:02.858Z,97093.22
2017-08-27T07:44:30.471Z,97093.00
2017-08-27T07:46:58.131Z,97091.03
2017-08-27T07:49:30.659Z,97087.46
2017-08-27T07:52:02.426Z,97089.73
2017-08-27T07:54:30.033Z,97095.79
2017-08-27T07:56:57.725Z,97094.17
2017-08-27T07:59:25.331Z,97098.54
2017-08-27T08:01:53.120Z,97096.59
2017-08-27T08:04:20.715Z,97094.63
2017-08-27T08:06:48.628Z,97090.37
2017-08-27T08:09:16.244Z,97088.38
2017-08-27T08:11:44.124Z,97088.56
2017-08-27T08:14:11.716Z,97090.88
2017-08-27T08:16:39.352Z,97084.86
2017-08-27T08:19:06.990Z,97076.76
2017-08-27T08:21:34.611Z,97078.33
2017-08-27T08:24:02.269Z,97077.90
2017-08-27T08:26:29.849Z,97079.14
2017-08-27T08:28:57.472Z,97077.33
2017-08-27T08:31:25.154Z,97086.43
2017-08-27T08:33:52.781Z,97091.09
2017-08-27T08:36:20.388Z,97096.70
2017-08-27T08:38:48.012Z,97091.61
2017-08-27T08:41:15.657Z,97092.84
2017-08-27T08:43:43.366Z,97099.70
2017-08-27T08:46:11.008Z,97092.98
2017-08-27T08:48:38.647Z,97093.32
2017-08-27T08:51:06.364Z,97090.25
2017-08-27T08:53:34.012Z,97087.39
2017-08-27T08:56:01.888Z,97093.61
2017-08-27T08:58:29.664Z,97096.22
2017-08-27T09:00:58.641Z,97095.47
2017-08-27T09:03:26.686Z,97092.70
2017-08-27T09:05:54.319Z,97095.34
2017-08-27T09:08:22.463Z,97087.84
2017-08-27T09:10:50.981Z,97088.67
2017-08-27T09:13:18.582Z,97096.41
2017-08-27T09:15:46.250Z,97098.34
2017-08-27T09:18:13.873Z,97093.14
2017-08-27T09:20:41.527Z,97088.50
2017-08-27T09:23:09.136Z,97089.83
2017-08-27T09:25:37.072Z,97097.36
2017-08-27T09:28:04.673Z,97096.10
2017-08-27T09:30:32.284Z,97102.72
2017-08-27T09:32:59.964Z,97116.02
2017-08-27T09:35:27.576Z,97119.52
2017-08-27T09:37:55.403Z,97130.38
2017-08-27T09:40:23.000Z,97131.20
2017-08-27T09:42:51.012Z,97138.62
2017-08-27T09:45:18.734Z,97136.34
2017-08-27T09:47:46.393Z,97141.36
2017-08-27T09:50:14.141Z,97138.11
2017-08-27T09:52:41.829Z,97141.80
2017-08-27T09:55:09.582Z,97147.48
2017-08-27T09:57:37.170Z,97148.94
2017-08-27T10:00:08.986Z,97148.78
2017-08-27T10:02:36.601Z,97147.20
2017-08-27T10:05:04.201Z,97144.92
2017-08-27T10:07:31.821Z,97137.28
2017-08-27T10:09:59.422Z,97123.81
2017-08-27T10:12:27.042Z,97118.00
2017-08-27T10:14:54.655Z,97113.43
2017-08-27T10:17:22.604Z,97114.70
2017-08-27T10:19:50.233Z,97101.62
2017-08-27T10:22:17.950Z,97087.16
2017-08-27T10:24:45.559Z,97079.33
2017-08-27T10:27:13.146Z,97065.80
2017-08-27T10:29:41.148Z,97057.19
2017-08-27T10:32:08.769Z,97063.80
2017-08-27T10:34:36.412Z,97063.55
2017-08-27T10:37:04.036Z,97064.56
2017-08-27T10:39:31.723Z,97073.17
2017-08-27T10:41:59.503Z,97062.69
2017-08-27T10:44:27.098Z,97064.17
2017-08-27T10:46:54.749Z,97056.94
2017-08-27T10:49:22.371Z,97056.75
2017-08-27T10:51:50.010Z,97061.37
2017-08-27T10:54:17.610Z,97080.32
2017-08-27T10:56:45.222Z,97071.66
2017-08-27T10:59:12.892Z,97073.92
2017-08-27T11:01:40.847Z,97071.20
2017-08-27T11:04:08.446Z,97068.85
2017-08-27T11:06:36.039Z,97071.62
2017-08-27T11:09:03.652Z,97080.23
2017-08-27T11:11:31.261Z,97091.78
2017-08-27T11:13:58.882Z,97100.07
2017-08-27T11:16:26.613Z,97106.59
2017-08-27T11:18:54.403Z,97107.41
2017-08-27T11:21:22.016Z,97113.75
2017-08-27T11:23:49.817Z,97133.03
2017-08-27T11:26:17.540Z,97152.66
2017-08-27T11:28:45.169Z,97185.17
2017-08-27T11:31:12.802Z,97172.00
2017-08-27T11:33:40.756Z,97159.06
2017-08-27T11:36:08.440Z,97142.67
2017-08-27T11:38:36.118Z,97129.67
2017-08-27T11:41:03.854Z,97142.59
2017-08-27T11:43:31.467Z,97131.25
2017-08-27T11:45:59.106Z,97135.89
2017-08-27T11:48:26.799Z,97158.66
2017-08-27T11:50:54.543Z,97169.00
2017-08-27T11:53:22.155Z,97166.70
2017-08-27T11:55:49.856Z,97162.52
2017-08-27T11:58:17.491Z,97153.29
2017-08-27T12:00:45.129Z,97156.12
2017-08-27T12:03:12.735Z,97163.34
2017-08-27T12:05:40.660Z,97170.00
2017-08-27T12:08:08.254Z,97167.21
2017-08-27T12:10:35.860Z,97170.30
2017-08-27T12:13:03.698Z,97189.52
2017-08-27T12:15:31.282Z,97193.58
2017-08-27T12:17:58.950Z,97203.50
2017-08-27T12:20:26.689Z,97204.50
2017-08-27T12:22:54.442Z,97197.37
2017-08-27T12:25:22.037Z,97198.50
2017-08-27T12:27:50.056Z,97186.95
2017-08-27T12:30:17.701Z,97176.77
2017-08-27T12:32:45.293Z,97166.88
2017-08-27T12:35:12.921Z,97137.73
2017-08-27T12:37:40.820Z,97137.25
2017-08-27T12:40:08.684Z,97133.31
2017-08-27T12:42:36.322Z,97135.90
2017-08-27T12:45:03.910Z,97139.41
2017-08-27T12:47:31.564Z,97147.22
2017-08-27T12:49:59.280Z,97149.86
2017-08-27T12:52:26.905Z,97142.48
2017-08-27T12:54:54.843Z,97135.84
2017-08-27T12:57:22.457Z,97115.11
2017-08-27T12:59:50.012Z,97113.95
2017-08-27T13:02:17.646Z,97107.95
2017-08-27T13:04:45.356Z,97097.27
2017-08-27T13:07:13.128Z,97093.05
2017-08-27T13:09:40.731Z,97093.48
2017-08-27T13:12:08.419Z,97103.69
2017-08-27T13:14:36.053Z,97099.34
2017-08-27T13:17:03.702Z,97103.84
2017-08-27T13:19:31.296Z,97107.11
2017-08-27T13:21:59.343Z,97108.91
2017-08-27T13:24:26.962Z,97101.35
2017-08-27T13:26:54.667Z,97102.03
2017-08-27T13:29:22.293Z,97101.61
2017-08-27T13:31:50.461Z,97092.72
2017-08-27T13:34:18.063Z,97091.19
2017-08-27T13:36:45.699Z,97096.33
2017-08-27T13:39:13.346Z,97087.83
2017-08-27T13:41:40.961Z,97090.64
2017-08-27T13:44:08.624Z,97084.64
2017-08-27T13:46:36.226Z,97098.08
2017-08-27T13:49:03.949Z,97094.20
2017-08-27T13:51:31.556Z,97087.18
2017-08-27T13:53:59.170Z,97091.70
2017-08-27T13:56:26.766Z,97087.16
2017-08-27T13:58:54.704Z,97098.25
2017-08-27T14:01:22.330Z,97102.91
2017-08-27T14:03:49.927Z,97099.26
2017-08-27T14:06:17.607Z,97099.80
2017-08-27T14:08:45.313Z,97096.98
2017-08-27T14:11:13.122Z,97102.63
2017-08-27T14:13:40.734Z,97097.79
2017-08-27T14:16:08.734Z,97092.20
2017-08-27T14:18:37.246Z,97095.23
2017-08-27T14:21:04.838Z,97094.23
2017-08-27T14:23:32.482Z,97099.00
2017-08-27T14:26:00.106Z,97100.77
2017-08-27T14:28:27.743Z,97107.28
2017-08-27T14:30:55.394Z,97092.80
2017-08-27T14:33:23.152Z,97084.23
2017-08-27T14:35:50.985Z,97083.86
2017-08-27T14:38:18.711Z,97092.78
2017-08-27T14:40:46.306Z,97095.60
2017-08-27T14:43:14.245Z,97100.44
2017-08-27T14:45:41.891Z,97100.36
2017-08-27T14:48:09.512Z,97102.70
2017-08-27T14:50:37.155Z,97090.47
2017-08-27T14:53:04.781Z,97094.73
2017-08-27T14:55:32.439Z,97086.02
2017-08-27T14:58:00.037Z,97092.93
2017-08-27T15:00:27.759Z,97091.55
2017-08-27T15:02:55.409Z,97100.73
2017-08-27T15:05:23.039Z,97100.23
2017-08-27T15:07:50.678Z,97097.65
2017-08-27T15:10:18.879Z,97092.77
2017-08-27T15:12:46.493Z,97093.48
2017-08-27T15:15:14.108Z,97090.42
2017-08-27T15:17:41.746Z,97090.25
2017-08-27T15:20:09.334Z,97077.94
2017-08-27T15:22:36.964Z,97075.06
2017-08-27T15:25:04.572Z,97073.24
2017-08-27T15:27:32.195Z,97069.47
2017-08-27T15:29:59.802Z,97066.47
2017-08-27T15:32:27.564Z,97060.41
2017-08-27T15:34:55.192Z,97058.20
2017-08-27T15:37:23.092Z,97059.67
2017-08-27T15:39:50.716Z,97061.77
2017-08-27T15:42:18.369Z,97062.02
2017-08-27T15:44:46.088Z,97061.42
2017-08-27T15:47:13.692Z,97056.73
2017-08-27T15:49:41.387Z,97053.61
2017-08-27T15:52:09.004Z,97053.55
2017-08-27T15:54:36.661Z,97054.34
2017-08-27T15:57:04.263Z,97054.26
2017-08-27T15:59:32.033Z,97053.66
2017-08-27T16:01:59.714Z,97053.61
2017-08-27T16:04:28.727Z,97052.37
2017-08-27T16:06:56.338Z,97058.79
2017-08-27T16:09:23.938Z,97060.75
2017-08-27T16:11:51.690Z,97051.30
2017-08-27T16:14:19.419Z,97045.56
2017-08-27T16:16:47.038Z,97048.86
2017-08-27T16:19:14.668Z,97043.61
2017-08-27T16:21:42.289Z,97041.29
2017-08-27T16:24:09.929Z,97038.50
2017-08-27T16:26:37.691Z,97036.42
2017-08-27T16:29:05.301Z,97042.13
2017-08-27T16:31:33.370Z,97053.41
2017-08-27T16:34:06.969Z,97052.46
2017-08-27T16:36:34.915Z,97060.98
2017-08-27T16:39:02.598Z,97066.63
2017-08-27T16:41:30.234Z,97070.43
2017-08-27T16:43:57.863Z,97066.78
2017-08-27T16:46:25.496Z,97058.96
2017-08-27T16:48:53.117Z,97066.20
2017-08-27T16:51:20.770Z,97063.12
2017-08-27T16:53:48.398Z,97057.72
2017-08-27T16:56:16.021Z,97055.69
2017-08-27T16:58:43.701Z,97050.59
2017-08-27T17:01:11.321Z,97051.17
2017-08-27T17:03:38.957Z,97051.31
2017-08-27T17:06:06.564Z,97058.92
2017-08-27T17:08:34.541Z,97062.24
2017-08-27T17:11:02.154Z,97075.86
2017-08-27T17:13:29.763Z,97078.61
2017-08-27T17:15:57.389Z,97079.38
2017-08-27T17:18:24.985Z,97072.39
2017-08-27T17:20:52.635Z,97075.35
2017-08-27T17:23:20.355Z,97076.13
2017-08-27T17:25:48.081Z,97078.23
2017-08-27T17:28:15.681Z,97092.78
2017-08-27T17:30:43.346Z,97088.11
2017-08-27T17:33:10.925Z,97091.16
2017-08-27T17:35:39.015Z,97092.56
2017-08-27T17:38:06.756Z,97104.72
2017-08-27T17:40:34.340Z,97107.05
2017-08-27T17:43:02.033Z,97096.85
2017-08-27T17:45:29.644Z,97101.30
2017-08-27T17:47:57.329Z,97107.89
2017-08-27T17:50:25.033Z,97096.70
2017-08-27T17:52:52.783Z,97098.52
2017-08-27T17:55:20.402Z,97096.81
2017-08-27T17:57:48.070Z,97095.64
2017-08-27T18:00:15.670Z,97091.33
2017-08-27T18:02:43.292Z,97098.42
2017-08-27T18:05:10.898Z,97103.73
2017-08-27T18:07:38.544Z,97108.61
2017-08-27T18:10:06.141Z,97105.34
2017-08-27T18:12:34.087Z,97114.09
2017-08-27T18:15:02.224Z,97119.81
2017-08-27T18:17:29.955Z,97116.45
2017-08-27T18:19:57.720Z,97115.38
2017-08-27T18:22:25.558Z,97141.27
2017-08-27T18:24:53.179Z,97154.69
2017-08-27T18:27:20.810Z,97161.59
2017-08-27T18:29:53.884Z,97146.94
2017-08-27T18:32:21.512Z,97150.87
2017-08-27T18:34:49.460Z,97161.82
2017-08-27T18:37:17.084Z,97172.66
2017-08-27T18:39:44.714Z,97184.46
2017-08-27T18:42:12.391Z,97187.16
2017-08-27T18:44:41.309Z,97191.59
2017-08-27T18:47:09.845Z,97170.48
2017-08-27T18:49:37.445Z,97151.59
2017-08-27T18:52:05.111Z,97143.89
2017-08-27T18:54:32.722Z,97162.89
2017-08-27T18:57:01.492Z,97166.09
2017-08-27T18:59:29.097Z,97165.29
2017-08-27T19:01:56.711Z,97151.25
2017-08-27T19:04:24.387Z,97138.67
2017-08-27T19:06:52.033Z,97139.67
2017-08-27T19:09:19.665Z,97158.67
2017-08-27T19:11:47.286Z,97163.62
2017-08-27T19:14:15.411Z,97161.70
2017-08-27T19:16:43.021Z,97172.41
2017-08-27T19:19:11.572Z,97183.59
2017-08-27T19:21:39.214Z,97192.27
2017-08-27T19:24:06.873Z,97175.01
2017-08-27T19:26:34.508Z,97187.05
2017-08-27T19:29:02.199Z,97190.87
2017-08-27T19:31:29.830Z,97196.16
2017-08-27T19:33:57.444Z,97202.17
2017-08-27T19:36:25.495Z,97204.37
2017-08-27T19:38:53.125Z,97196.30
2017-08-27T19:41:20.740Z,97196.25
2017-08-27T19:43:48.365Z,97197.54
2017-08-27T19:46:15.974Z,97201.41
2017-08-27T19:48:43.605Z,97201.90
2017-08-27T19:51:11.335Z,97196.80
2017-08-27T19:53:38.981Z,97199.91
2017-08-27T19:56:06.599Z,97207.33
2017-08-27T19:58:34.224Z,97212.12
2017-08-27T20:01:01.879Z,97210.45
2017-08-27T20:03:29.843Z,97213.41
2017-08-27T20:05:57.488Z,97207.88
2017-08-27T20:08:25.102Z,97213.09
2017-08-27T20:10:52.749Z,97221.31
2017-08-27T20:13:20.372Z,97224.43
2017-08-27T20:15:48.000Z,97228.36
2017-08-27T20:18:16.894Z,97225.50
2017-08-27T20:20:44.537Z,97221.28
2017-08-27T20:23:12.130Z,97219.19
2017-08-27T20:25:39.736Z,97221.39
2017-08-27T20:28:07.756Z,97213.23
2017-08-27T20:30:35.363Z,97216.71
2017-08-27T20:33:02.974Z,97225.32
2017-08-27T20:35:30.582Z,97224.98
2017-08-27T20:37:58.240Z,97226.32
2017-08-27T20:40:25.849Z,97227.66
2017-08-27T20:42:53.457Z,97229.86
2017-08-27T20:45:21.037Z,97231.30
2017-08-27T20:47:48.715Z,97234.42
2017-08-27T20:50:16.318Z,97231.93
2017-08-27T20:52:43.947Z,97230.69
2017-08-27T20:55:11.528Z,97223.85
2017-08-27T20:57:39.150Z,97229.45
2017-08-27T21:00:06.777Z,97231.22
2017-08-27T21:02:34.366Z,97234.23
2017-08-27T21:05:02.267Z,97235.63
2017-08-27T21:07:29.878Z,97240.41
2017-08-27T21:09:57.638Z,97242.22
2017-08-27T21:12:25.276Z,97235.05
2017-08-27T21:14:52.854Z,97235.11
2017-08-27T21:17:20.812Z,97232.19
2017-08-27T21:19:48.442Z,97236.14
2017-08-27T21:22:16.053Z,97236.15
2017-08-27T21:24:43.708Z,97236.66
2017-08-27T21:27:11.380Z,97237.14
2017-08-27T21:29:39.093Z,97237.20
2017-08-27T21:32:06.712Z,97244.92
2017-08-27T21:34:34.357Z,97245.40
2017-08-27T21:37:01.948Z,97239.04
2017-08-27T21:39:29.894Z,97245.48
2017-08-27T21:41:57.514Z,97242.05
2017-08-27T21:44:25.136Z,97242.92
2017-08-27T21:46:52.742Z,97239.95
2017-08-27T21:49:20.359Z,97241.77
2017-08-27T21:51:47.972Z,97233.69
2017-08-27T21:54:15.585Z,97232.86
2017-08-27T21:56:43.204Z,97233.30
2017-08-27T21:59:10.800Z,97236.78
2017-08-27T22:01:38.784Z,97223.94
2017-08-27T22:04:06.388Z,97231.72
2017-08-27T22:06:34.002Z,97217.16
2017-08-27T22:09:01.650Z,97224.97
2017-08-27T22:11:29.256Z,97225.88
2017-08-27T22:13:57.003Z,97226.78
2017-08-27T22:16:24.633Z,97224.77
2017-08-27T22:18:52.600Z,97226.61
2017-08-27T22:21:20.237Z,97228.41
2017-08-27T22:23:47.832Z,97227.13
2017-08-27T22:26:15.677Z,97223.31
2017-08-27T22:28:43.295Z,97226.75
2017-08-27T22:31:10.953Z,97230.30
2017-08-27T22:33:38.580Z,97230.34
2017-08-27T22:36:06.215Z,97232.11
2017-08-27T22:38:33.899Z,97228.77
2017-08-27T22:41:01.845Z,97231.42
2017-08-27T22:43:29.437Z,97221.67
2017-08-27T22:45:57.239Z,97228.08
2017-08-27T22:48:24.860Z,97222.15
2017-08-27T22:50:52.468Z,97230.38
2017-08-27T22:53:20.071Z,97214.15
2017-08-27T22:55:47.685Z,97221.06
2017-08-27T22:58:15.316Z,97224.58
2017-08-27T23:00:42.935Z,97231.05
2017-08-27T23:03:10.915Z,97236.24
2017-08-27T23:05:38.518Z,97239.33
2017-08-27T23:08:06.111Z,97235.53
2017-08-27T23:10:33.801Z,97230.43
2017-08-27T23:13:01.428Z,97227.90
2017-08-27T23:15:29.069Z,97228.87
2017-08-27T23:17:56.658Z,97235.30
2017-08-27T23:20:24.646Z,97236.24
2017-08-27T23:22:52.237Z,97226.37
2017-08-27T23:25:19.961Z,97231.09
2017-08-27T23:27:47.567Z,97225.98
2017-08-27T23:30:15.173Z,97227.73
2017-08-27T23:32:42.796Z,97223.52
2017-08-27T23:35:10.550Z,97234.72
2017-08-27T23:37:38.198Z,97234.00
2017-08-27T23:40:05.880Z,97225.14
2017-08-27T23:42:33.503Z,97229.97
2017-08-27T23:45:01.113Z,97222.80
2017-08-27T23:47:28.985Z,97225.36
2017-08-27T23:49:56.629Z,97221.11
2017-08-27T23:52:24.227Z,97220.69
2017-08-27T23:54:51.841Z,97218.58
2017-08-27T23:57:19.423Z,97209.22
2017-08-27T23:59:47.075Z,97212.25
